createdAt,value
2022-10-09T00:00:32.301Z,11.20
2022-10-09T00:03:43.824Z,11.20
2022-10-09T00:06:52.217Z,11.20
2022-10-09T00:10:00.609Z,11.10
2022-10-09T00:13:09.040Z,11.20
2022-10-09T00:16:18.599Z,11.20
2022-10-09T00:19:28.518Z,11.20
2022-10-09T00:22:37.051Z,11.20
2022-10-09T00:25:52.843Z,11.20
2022-10-09T00:29:01.438Z,11.20
2022-10-09T00:32:09.931Z,11.20
2022-10-09T00:35:20.191Z,11.20
2022-10-09T00:38:30.086Z,11.20
2022-10-09T00:41:38.560Z,11.20
2022-10-09T00:44:57.778Z,11.10
2022-10-09T00:48:08.536Z,11.10
2022-10-09T00:51:18.409Z,11.10
2022-10-09T00:54:29.868Z,11.10
2022-10-09T00:57:40.211Z,11.00
2022-10-09T01:00:49.329Z,11.00
2022-10-09T01:03:57.785Z,11.00
2022-10-09T01:07:29.327Z,11.10
2022-10-09T01:10:42.893Z,11.00
2022-10-09T01:13:58.983Z,11.10
2022-10-09T01:17:15.138Z,10.90
2022-10-09T01:20:32.863Z,10.80
2022-10-09T01:24:05.921Z,10.80
2022-10-09T01:27:18.532Z,10.80
2022-10-09T01:30:27.024Z,10.80
2022-10-09T01:33:36.077Z,10.80
2022-10-09T01:36:45.966Z,10.80
2022-10-09T01:39:55.262Z,10.80
2022-10-09T01:43:05.940Z,10.80
2022-10-09T01:46:22.760Z,10.70
2022-10-09T01:49:43.306Z,10.70
2022-10-09T01:52:54.579Z,10.70
2022-10-09T01:56:08.255Z,10.70
2022-10-09T01:59:20.903Z,10.70
2022-10-09T02:02:30.107Z,10.80
2022-10-09T02:05:39.937Z,10.80
2022-10-09T02:08:50.966Z,10.80
2022-10-09T02:12:05.558Z,10.90
2022-10-09T02:15:16.240Z,10.80
2022-10-09T02:18:31.999Z,10.80
2022-10-09T02:21:46.454Z,10.80
2022-10-09T02:24:56.193Z,10.80
2022-10-09T02:28:05.684Z,10.80
2022-10-09T02:31:21.470Z,10.80
2022-10-09T02:34:29.966Z,10.80
2022-10-09T02:37:38.343Z,10.80
2022-10-09T02:40:46.702Z,10.70
2022-10-09T02:43:55.237Z,10.70
2022-10-09T02:47:05.278Z,10.70
2022-10-09T02:50:13.741Z,10.70
2022-10-09T02:53:22.243Z,10.60
2022-10-09T02:56:31.659Z,10.60
2022-10-09T02:59:41.291Z,10.60
2022-10-09T03:02:51.309Z,10.60
2022-10-09T03:06:04.165Z,10.60
2022-10-09T03:09:12.584Z,10.60
2022-10-09T03:12:22.228Z,10.50
2022-10-09T03:15:30.732Z,10.50
2022-10-09T03:18:40.977Z,10.50
2022-10-09T03:21:49.450Z,10.60
2022-10-09T03:24:57.878Z,10.60
2022-10-09T03:28:06.407Z,10.60
2022-10-09T03:31:33.476Z,10.60
2022-10-09T03:34:45.863Z,10.50
2022-10-09T03:37:55.223Z,10.50
2022-10-09T03:41:05.309Z,10.50
2022-10-09T03:44:13.706Z,10.50
2022-10-09T03:47:22.247Z,10.50
2022-10-09T03:50:32.152Z,10.60
2022-10-09T03:53:40.529Z,10.60
2022-10-09T03:56:49.041Z,10.60
2022-10-09T03:59:57.485Z,10.60
2022-10-09T04:03:06.046Z,10.60
2022-10-09T04:06:17.016Z,10.70
2022-10-09T04:09:25.432Z,10.60
2022-10-09T04:12:34.062Z,10.70
2022-10-09T04:15:50.456Z,10.70
2022-10-09T04:18:58.868Z,10.70
2022-10-09T04:22:08.662Z,10.70
2022-10-09T04:25:17.216Z,10.60
2022-10-09T04:28:25.837Z,10.60
2022-10-09T04:31:34.280Z,10.60
2022-10-09T04:34:42.730Z,10.70
2022-10-09T04:37:52.590Z,10.60
2022-10-09T04:41:03.337Z,10.70
2022-10-09T04:44:11.818Z,10.70
2022-10-09T04:47:20.221Z,10.70
2022-10-09T04:50:28.712Z,10.70
2022-10-09T04:53:41.596Z,10.70
2022-10-09T04:56:50.042Z,10.60
2022-10-09T04:59:58.446Z,10.60
2022-10-09T05:03:06.864Z,10.60
2022-10-09T05:06:16.840Z,10.60
2022-10-09T05:09:26.753Z,10.60
2022-10-09T05:12:35.185Z,10.60
2022-10-09T05:15:44.663Z,10.60
2022-10-09T05:18:55.177Z,10.60
2022-10-09T05:22:03.590Z,10.50
2022-10-09T05:25:13.407Z,10.60
2022-10-09T05:28:21.868Z,10.60
2022-10-09T05:31:31.874Z,10.60
2022-10-09T05:34:40.333Z,10.50
2022-10-09T05:37:48.803Z,10.60
2022-10-09T05:41:00.894Z,10.50
2022-10-09T05:44:10.042Z,10.60
2022-10-09T05:47:19.829Z,10.60
2022-10-09T05:50:28.262Z,10.60
2022-10-09T05:53:36.726Z,10.70
2022-10-09T05:56:47.183Z,10.70
2022-10-09T05:59:55.583Z,10.70
2022-10-09T06:03:04.099Z,10.80
2022-10-09T06:06:13.352Z,10.90
2022-10-09T06:09:23.797Z,11.10
2022-10-09T06:12:34.132Z,11.80
2022-10-09T06:15:53.366Z,14.20
2022-10-09T06:19:02.397Z,16.10
2022-10-09T06:22:10.789Z,17.00
2022-10-09T06:25:19.195Z,16.30
2022-10-09T06:28:29.589Z,15.50
2022-10-09T06:31:38.139Z,14.60
2022-10-09T06:34:46.551Z,14.70
2022-10-09T06:37:55.249Z,15.10
2022-10-09T06:41:04.480Z,14.50
2022-10-09T06:44:17.203Z,14.80
2022-10-09T06:47:26.985Z,15.30
2022-10-09T06:50:38.920Z,15.10
2022-10-09T06:53:49.422Z,15.10
2022-10-09T06:56:57.869Z,16.20
2022-10-09T07:00:09.438Z,16.90
2022-10-09T07:03:18.305Z,17.50
2022-10-09T07:06:28.885Z,17.60
2022-10-09T07:09:37.444Z,17.50
2022-10-09T07:12:46.127Z,17.50
2022-10-09T07:15:56.216Z,18.20
2022-10-09T07:19:07.639Z,19.10
2022-10-09T07:22:16.135Z,19.40
2022-10-09T07:25:24.508Z,17.80
2022-10-09T07:28:32.956Z,17.30
2022-10-09T07:31:42.940Z,16.10
2022-10-09T07:34:51.444Z,15.90
2022-10-09T07:38:00.075Z,19.50
2022-10-09T07:41:10.131Z,22.50
2022-10-09T07:44:18.653Z,23.90
2022-10-09T07:47:28.488Z,25.00
2022-10-09T07:50:37.047Z,26.20
2022-10-09T07:53:45.951Z,26.80
2022-10-09T07:56:54.459Z,26.00
2022-10-09T08:00:03.065Z,27.10
2022-10-09T08:03:22.056Z,26.80
2022-10-09T08:06:31.181Z,24.30
2022-10-09T08:09:39.734Z,24.10
2022-10-09T08:12:49.180Z,21.20
2022-10-09T08:16:00.625Z,20.60
2022-10-09T08:19:11.031Z,21.50
2022-10-09T08:22:19.432Z,22.80
2022-10-09T08:25:27.874Z,25.10
2022-10-09T08:28:36.297Z,26.10
2022-10-09T08:31:44.796Z,26.40
2022-10-09T08:34:54.639Z,26.70
2022-10-09T08:38:03.130Z,25.70
2022-10-09T08:41:17.661Z,25.50
2022-10-09T08:44:29.148Z,24.80
2022-10-09T08:47:42.235Z,22.70
2022-10-09T08:50:54.479Z,22.00
2022-10-09T08:54:06.479Z,20.30
2022-10-09T08:57:16.922Z,19.90
2022-10-09T09:00:29.295Z,21.10
2022-10-09T09:03:53.010Z,20.90
2022-10-09T09:07:13.330Z,20.60
2022-10-09T09:10:31.521Z,20.20
2022-10-09T09:13:51.030Z,20.60
2022-10-09T09:17:06.524Z,20.20
2022-10-09T09:20:19.786Z,20.10
2022-10-09T09:23:33.842Z,20.00
2022-10-09T09:26:44.541Z,19.10
2022-10-09T09:29:58.398Z,19.10
2022-10-09T09:33:16.869Z,18.60
2022-10-09T09:36:29.556Z,18.30
2022-10-09T09:40:35.077Z,18.50
2022-10-09T09:43:16.271Z,18.80
2022-10-09T09:46:28.554Z,19.00
2022-10-09T09:49:38.169Z,19.00
2022-10-09T09:52:48.246Z,18.80
2022-10-09T09:55:58.274Z,19.00
2022-10-09T09:59:07.206Z,18.50
2022-10-09T10:02:19.493Z,18.30
2022-10-09T10:05:29.230Z,18.60
2022-10-09T10:08:37.710Z,18.50
2022-10-09T10:11:51.927Z,18.60
2022-10-09T10:15:00.681Z,18.60
2022-10-09T10:18:16.289Z,18.50
2022-10-09T10:21:24.992Z,18.00
2022-10-09T10:24:36.745Z,18.10
2022-10-09T10:27:50.408Z,18.40
2022-10-09T10:31:04.166Z,18.20
2022-10-09T10:34:20.549Z,18.10
2022-10-09T10:37:34.243Z,17.90
2022-10-09T10:40:47.645Z,17.50
2022-10-09T10:44:03.058Z,17.70
2022-10-09T10:47:17.601Z,17.30
2022-10-09T10:50:36.278Z,17.40
2022-10-09T10:54:01.980Z,17.40
2022-10-09T10:57:17.672Z,17.20
2022-10-09T11:00:28.695Z,17.40
2022-10-09T11:04:02.679Z,17.70
2022-10-09T11:07:22.666Z,17.70
2022-10-09T11:10:38.050Z,17.70
2022-10-09T11:13:56.154Z,17.70
2022-10-09T11:17:18.772Z,17.30
2022-10-09T11:20:56.754Z,17.00
2022-10-09T11:24:31.525Z,17.10
2022-10-09T11:27:45.532Z,17.30
2022-10-09T11:31:02.920Z,17.40
2022-10-09T11:34:17.658Z,17.40
2022-10-09T11:37:31.073Z,16.90
2022-10-09T11:40:42.791Z,16.80
2022-10-09T11:44:01.997Z,16.70
2022-10-09T11:47:19.371Z,16.70
2022-10-09T11:50:48.769Z,16.60
2022-10-09T11:53:57.684Z,16.60
2022-10-09T11:57:08.034Z,16.30
2022-10-09T12:00:31.461Z,16.20
2022-10-09T12:03:41.310Z,16.20
2022-10-09T12:06:52.969Z,16.30
2022-10-09T12:10:06.094Z,16.40
2022-10-09T12:13:31.448Z,16.30
2022-10-09T12:16:42.300Z,16.30
2022-10-09T12:19:55.338Z,16.40
2022-10-09T12:23:26.157Z,16.50
2022-10-09T12:26:36.497Z,16.40
2022-10-09T12:29:47.488Z,16.00
2022-10-09T12:33:00.012Z,15.80
2022-10-09T12:36:14.224Z,15.60
2022-10-09T12:39:25.703Z,15.60
2022-10-09T12:42:34.294Z,15.60
2022-10-09T12:45:45.804Z,15.50
2022-10-09T12:48:54.678Z,15.50
2022-10-09T12:52:04.058Z,15.60
2022-10-09T12:55:26.972Z,15.50
2022-10-09T12:58:39.433Z,15.50
2022-10-09T13:01:49.206Z,15.40
2022-10-09T13:05:02.260Z,15.20
2022-10-09T13:08:23.304Z,15.10
2022-10-09T13:11:37.276Z,15.10
2022-10-09T13:14:47.187Z,15.00
2022-10-09T13:17:55.680Z,15.00
2022-10-09T13:21:06.042Z,15.00
2022-10-09T13:24:14.542Z,15.00
2022-10-09T13:27:26.885Z,15.00
2022-10-09T13:30:35.752Z,15.00
2022-10-09T13:33:44.182Z,14.90
2022-10-09T13:36:52.867Z,14.90
2022-10-09T13:40:01.897Z,14.80
2022-10-09T13:43:18.694Z,14.80
2022-10-09T13:46:27.189Z,14.80
2022-10-09T13:49:35.676Z,14.80
2022-10-09T13:52:44.098Z,14.80
2022-10-09T13:55:55.891Z,14.80
2022-10-09T13:59:07.070Z,14.70
2022-10-09T14:02:15.514Z,14.70
2022-10-09T14:05:24.043Z,14.70
2022-10-09T14:08:32.530Z,14.60
2022-10-09T14:11:40.989Z,14.60
2022-10-09T14:14:50.841Z,14.50
2022-10-09T14:17:59.377Z,14.50
2022-10-09T14:21:15.022Z,14.60
2022-10-09T14:24:25.228Z,14.50
2022-10-09T14:30:48.333Z,14.40
2022-10-09T14:33:58.692Z,14.40
2022-10-09T14:37:18.438Z,14.50
2022-10-09T14:40:32.481Z,14.40
2022-10-09T14:43:41.138Z,14.50
2022-10-09T14:46:51.024Z,14.40
2022-10-09T14:49:59.507Z,14.30
2022-10-09T14:53:07.935Z,14.30
2022-10-09T14:56:19.323Z,14.20
2022-10-09T14:59:28.222Z,14.20
2022-10-09T15:02:38.069Z,14.40
2022-10-09T15:05:46.450Z,14.70
2022-10-09T15:09:03.136Z,14.80
2022-10-09T15:12:14.210Z,14.50
2022-10-09T15:15:22.619Z,14.30
2022-10-09T15:18:32.548Z,14.30
2022-10-09T15:21:41.411Z,14.30
2022-10-09T15:24:50.283Z,14.40
2022-10-09T15:28:01.513Z,14.30
2022-10-09T15:31:20.251Z,14.20
2022-10-09T15:34:30.907Z,14.20
2022-10-09T15:37:39.462Z,14.30
2022-10-09T15:40:50.725Z,14.20
2022-10-09T15:44:00.504Z,14.00
2022-10-09T15:47:09.120Z,14.00
2022-10-09T15:50:19.267Z,14.00
2022-10-09T15:53:28.390Z,14.00
2022-10-09T15:56:39.956Z,13.80
2022-10-09T15:59:48.884Z,13.80
2022-10-09T16:02:57.299Z,13.60
2022-10-09T16:06:09.495Z,13.50
2022-10-09T16:09:17.988Z,13.60
2022-10-09T16:12:26.457Z,13.50
2022-10-09T16:15:40.070Z,13.50
2022-10-09T16:18:49.171Z,13.30
2022-10-09T16:21:59.060Z,13.20
2022-10-09T16:25:08.260Z,13.20
2022-10-09T16:28:16.777Z,13.50
2022-10-09T16:31:27.162Z,13.20
2022-10-09T16:34:35.622Z,13.10
2022-10-09T16:37:45.558Z,12.90
2022-10-09T16:41:01.906Z,13.00
2022-10-09T16:44:14.235Z,12.80
2022-10-09T16:47:23.079Z,12.70
2022-10-09T16:50:31.487Z,12.60
2022-10-09T16:53:42.008Z,12.60
2022-10-09T16:56:50.492Z,12.50
2022-10-09T16:59:59.199Z,12.50
2022-10-09T17:03:07.616Z,12.60
2022-10-09T17:06:19.670Z,12.60
2022-10-09T17:09:30.278Z,12.50
2022-10-09T17:12:38.763Z,12.40
2022-10-09T17:15:47.214Z,12.40
2022-10-09T17:18:56.415Z,12.40
2022-10-09T17:22:05.665Z,12.40
2022-10-09T17:25:15.754Z,12.30
2022-10-09T17:28:24.421Z,12.30
2022-10-09T17:31:33.195Z,12.30
2022-10-09T17:34:45.813Z,12.40
2022-10-09T17:37:57.148Z,12.30
2022-10-09T17:41:07.799Z,12.40
2022-10-09T17:44:16.548Z,12.40
2022-10-09T17:47:25.027Z,12.40
2022-10-09T17:50:36.851Z,12.30
2022-10-09T17:53:45.796Z,12.30
2022-10-09T17:56:55.678Z,12.30
2022-10-09T18:00:04.219Z,12.20
2022-10-09T18:03:13.601Z,12.20
2022-10-09T18:06:23.929Z,12.20
2022-10-09T18:09:32.373Z,12.30
2022-10-09T18:12:42.205Z,12.30
2022-10-09T18:15:50.690Z,12.20
2022-10-09T18:19:01.882Z,12.20
2022-10-09T18:22:11.890Z,12.20
2022-10-09T18:25:20.287Z,12.20
2022-10-09T18:28:30.115Z,12.20
2022-10-09T18:31:38.948Z,12.10
2022-10-09T18:34:47.807Z,12.10
2022-10-09T18:37:56.195Z,12.10
2022-10-09T18:41:06.929Z,12.10
2022-10-09T18:44:20.832Z,12.10
2022-10-09T18:47:32.727Z,12.00
2022-10-09T18:50:42.682Z,12.00
2022-10-09T18:53:55.541Z,12.10
2022-10-09T18:57:05.027Z,12.10
2022-10-09T19:00:18.259Z,12.10
2022-10-09T19:03:26.677Z,12.10
2022-10-09T19:06:35.176Z,12.10
2022-10-09T19:09:43.627Z,12.10
2022-10-09T19:12:52.574Z,12.20
2022-10-09T19:16:04.791Z,12.20
2022-10-09T19:19:13.327Z,12.20
2022-10-09T19:22:24.003Z,12.20
2022-10-09T19:25:32.671Z,12.20
2022-10-09T19:28:43.346Z,12.20
2022-10-09T19:31:54.227Z,12.10
2022-10-09T19:35:02.791Z,12.10
2022-10-09T19:38:11.275Z,12.10
2022-10-09T19:41:19.715Z,12.10
2022-10-09T19:44:28.237Z,12.00
2022-10-09T19:47:38.081Z,12.10
2022-10-09T19:50:47.527Z,12.10
2022-10-09T19:53:56.292Z,12.10
2022-10-09T19:57:04.892Z,12.10
2022-10-09T20:00:14.399Z,12.10
2022-10-09T20:03:24.295Z,12.10
2022-10-09T20:06:33.047Z,12.10
2022-10-09T20:09:41.708Z,12.10
2022-10-09T20:12:50.361Z,12.20
2022-10-09T20:16:01.207Z,12.10
2022-10-09T20:19:11.933Z,12.10
2022-10-09T20:22:20.350Z,12.00
2022-10-09T20:25:28.806Z,12.00
2022-10-09T20:28:38.571Z,12.00
2022-10-09T20:31:48.822Z,12.00
2022-10-09T20:35:02.294Z,12.00
2022-10-09T20:38:10.699Z,12.00
2022-10-09T20:41:19.430Z,12.00
2022-10-09T20:44:27.845Z,12.00
2022-10-09T20:47:36.370Z,12.00
2022-10-09T20:50:46.159Z,12.00
2022-10-09T20:53:56.113Z,12.00
2022-10-09T20:57:04.620Z,12.10
2022-10-09T21:00:14.069Z,12.00
2022-10-09T21:03:23.007Z,12.00
2022-10-09T21:06:34.063Z,12.00
2022-10-09T21:09:42.425Z,12.00
2022-10-09T21:12:51.170Z,12.00
2022-10-09T21:15:59.923Z,12.00
2022-10-09T21:19:08.499Z,12.10
2022-10-09T21:22:19.055Z,12.10
2022-10-09T21:25:27.628Z,12.10
2022-10-09T21:28:36.237Z,12.20
2022-10-09T21:31:44.849Z,12.20
2022-10-09T21:34:53.261Z,12.20
2022-10-09T21:38:03.110Z,12.20
2022-10-09T21:41:14.196Z,12.20
2022-10-09T21:44:22.658Z,12.20
2022-10-09T21:47:31.061Z,12.20
2022-10-09T21:50:39.527Z,12.20
2022-10-09T21:53:50.268Z,12.20
2022-10-09T21:56:58.663Z,12.20
2022-10-09T22:00:08.282Z,12.20
2022-10-09T22:03:16.694Z,12.20
2022-10-09T22:06:25.154Z,12.20
2022-10-09T22:09:34.983Z,12.20
2022-10-09T22:12:43.424Z,12.20
2022-10-09T22:15:51.871Z,12.10
2022-10-09T22:19:00.363Z,12.10
2022-10-09T22:22:08.766Z,12.10
2022-10-09T22:25:18.673Z,12.10
2022-10-09T22:28:27.218Z,12.10
2022-10-09T22:31:35.713Z,12.10
2022-10-09T22:34:44.174Z,12.10
2022-10-09T22:37:52.705Z,12.00
2022-10-09T22:41:07.530Z,12.10
2022-10-09T22:44:15.921Z,12.10
2022-10-09T22:47:24.322Z,12.00
2022-10-09T22:50:32.760Z,12.00
2022-10-09T22:53:41.974Z,12.00
2022-10-09T22:56:51.807Z,12.00
2022-10-09T23:00:00.278Z,12.00
2022-10-09T23:03:08.770Z,12.00
2022-10-09T23:06:18.963Z,12.00
2022-10-09T23:09:30.814Z,12.00
2022-10-09T23:12:40.691Z,12.00
2022-10-09T23:15:49.066Z,12.00
2022-10-09T23:18:58.615Z,12.00
2022-10-09T23:22:07.427Z,12.00
2022-10-09T23:25:15.959Z,12.00
2022-10-09T23:28:27.777Z,11.90
2022-10-09T23:31:36.741Z,12.00
2022-10-09T23:34:45.310Z,12.00
2022-10-09T23:37:54.149Z,12.00
2022-10-09T23:41:04.646Z,12.00
2022-10-09T23:44:16.001Z,12.10
2022-10-09T23:47:27.317Z,12.10
2022-10-09T23:50:35.808Z,12.10
2022-10-09T23:53:45.086Z,12.10
2022-10-09T23:56:53.588Z,12.10
